Airfield :
LOGIN :

Register | Disclaimer

   EN    FR    IT 

 










Legend :    VFR   Marginal VFR   IFR   Intensive IFR   Very Intensive IFR
Visi :
Ceiling :
>= 8 km
>= 3000ft
5 to 8 km
1000 to 3000 ft
1500m to 5 km
500 to 1000 ft
800 to 1500m
200 to 500 ft
< 800m
< 200 ft
Symbols :   Thunderstorms  Fog  Heavy snow  Heavy precipitations  Wind > 20 kt
SIGMETs :     Misc.  Thunderstorms  Icing  Turbulence  Mountain Waves  Volcanic Ashes







- Airport Elevation : 412 ft
- IATA code : ORE
- Download approach charts


LFOJ - Orleans

CURRENT METAR :
  • 260800Z AUTO 22011KT 180V240 9999 BKN015 OVC160 10/07 Q1013 NOSIG

EXPIRED METARs :
  • 260730Z AUTO 20011KT 9999 FEW014 SCT160 BKN180 10/07 Q1013 NOSIG
  • 260700Z AUTO 19009KT CAVOK 09/07 Q1012
  • 260630Z AUTO 19007KT 9999 NSC 08/06 Q1012
  • 260600Z AUTO 18008KT 9999 NSC 07/06 Q1012
  • 260530Z AUTO 19007KT 9999 NSC 06/05 Q1011

TAF AMD TAF LFOJ
Valid from the 26 at 04:00 until the 27 at 03:00 UTC


260200Z 2604/2703 18005KT CAVOK
PROB30
TEMPO 2604/2606 4900 BR
TEMPO 2613/2619 4900 -SHRA BKN030TCU
PROB40
TEMPO 2614/2616 26015G30KT 3000 TSRA BKN030CB
BECMG 2701/2703 4900 -RA
No reported NOTAMs for that airfield.



MET'MAP, your aeronautical weather chart ! - Copyright ORBIFLY December 2007 - Disclaimer

ORBIFLY MET'MAP TEAM :

Programming & Development : Alexandra Zaïnal
Concept & Development : Baudouin d'Aumeries
Co-Development & Prog : Marc-Olivier Méhu
Technical & hardware support : Manuel Goepfert

Contact : metmap@orbifly.com




SOURCES & CREDITS :

   NOAA